createdAt,value
2022-11-27T00:03:31.600Z,28.07
2022-11-27T00:08:42.341Z,26.53
2022-11-27T00:13:50.178Z,28.50
2022-11-27T00:18:57.918Z,27.33
2022-11-27T00:24:06.858Z,27.97
2022-11-27T00:29:14.580Z,21.57
2022-11-27T00:34:22.291Z,25.53
2022-11-27T00:39:30.061Z,23.70
2022-11-27T00:44:38.003Z,21.37
2022-11-27T00:49:47.424Z,22.73
2022-11-27T00:54:55.158Z,22.07
2022-11-27T01:00:03.570Z,22.43
2022-11-27T01:05:11.711Z,21.20
2022-11-27T01:10:19.428Z,22.70
2022-11-27T01:15:27.047Z,23.00
2022-11-27T01:20:34.756Z,21.40
2022-11-27T01:25:42.979Z,23.17
2022-11-27T01:30:51.760Z,22.33
2022-11-27T01:36:01.043Z,23.37
2022-11-27T01:41:11.318Z,23.57
2022-11-27T01:46:39.805Z,22.63
2022-11-27T01:52:02.572Z,23.63
2022-11-27T01:57:17.533Z,24.00
2022-11-27T02:02:26.672Z,25.30
2022-11-27T02:07:34.632Z,26.67
2022-11-27T02:12:48.463Z,26.03
2022-11-27T02:18:08.797Z,22.97
2022-11-27T02:23:36.408Z,19.47
2022-11-27T02:28:59.701Z,23.05
2022-11-27T02:34:24.244Z,21.90
2022-11-27T02:39:38.149Z,21.53
2022-11-27T02:44:54.576Z,24.53
2022-11-27T02:50:02.315Z,21.93
2022-11-27T02:55:14.003Z,24.17
2022-11-27T03:00:22.168Z,25.77
2022-11-27T03:05:32.610Z,26.30
2022-11-27T03:11:12.925Z,27.47
2022-11-27T03:16:33.417Z,28.03
2022-11-27T03:21:46.322Z,26.07
2022-11-27T03:26:54.158Z,25.87
2022-11-27T03:32:02.078Z,25.60
2022-11-27T03:37:09.797Z,25.53
2022-11-27T03:42:27.872Z,28.10
2022-11-27T03:47:58.600Z,23.80
2022-11-27T03:53:13.989Z,29.33
2022-11-27T03:58:35.681Z,25.47
2022-11-27T04:03:43.429Z,29.37
2022-11-27T04:08:52.909Z,29.43
2022-11-27T04:14:00.881Z,29.17
2022-11-27T04:19:09.662Z,26.40
2022-11-27T04:24:17.510Z,26.97
2022-11-27T04:29:25.139Z,26.83
2022-11-27T04:34:33.379Z,27.93
2022-11-27T04:39:41.129Z,31.87
2022-11-27T04:44:50.277Z,30.13
2022-11-27T04:49:58.883Z,28.67
2022-11-27T04:55:07.553Z,28.07
2022-11-27T05:00:16.250Z,30.13
2022-11-27T05:05:23.983Z,36.00
2022-11-27T05:10:33.149Z,30.00
2022-11-27T05:15:40.881Z,24.07
2022-11-27T05:20:48.534Z,28.67
2022-11-27T05:25:57.474Z,28.27
2022-11-27T05:31:06.059Z,29.70
2022-11-27T05:36:13.919Z,29.33
2022-11-27T05:41:21.660Z,28.37
2022-11-27T05:46:30.553Z,29.93
2022-11-27T05:51:45.107Z,31.60
2022-11-27T05:56:51.201Z,27.37
2022-11-27T06:01:58.958Z,29.67
2022-11-27T06:07:06.710Z,28.03
2022-11-27T06:12:15.862Z,27.20
2022-11-27T06:17:23.988Z,25.23
2022-11-27T06:22:33.318Z,25.83
2022-11-27T06:27:42.054Z,27.47
2022-11-27T06:32:49.696Z,28.77
2022-11-27T06:37:57.338Z,24.33
2022-11-27T06:43:05.114Z,28.33
2022-11-27T06:48:12.815Z,29.27
2022-11-27T06:53:20.525Z,26.23
2022-11-27T06:58:31.244Z,22.20
2022-11-27T07:03:37.486Z,27.23
2022-11-27T07:08:45.157Z,23.10
2022-11-27T07:13:53.587Z,24.37
2022-11-27T07:19:03.352Z,25.63
2022-11-27T07:24:11.119Z,24.83
2022-11-27T07:29:21.571Z,23.00
2022-11-27T07:34:29.317Z,26.13
2022-11-27T07:40:00.885Z,22.30
2022-11-27T07:44:46.516Z,21.87
2022-11-27T07:49:55.355Z,23.23
2022-11-27T07:55:02.970Z,19.77
2022-11-27T08:00:12.351Z,19.83
2022-11-27T08:05:20.240Z,21.90
2022-11-27T08:10:27.920Z,25.17
2022-11-27T08:15:38.063Z,22.10
2022-11-27T08:20:46.157Z,22.77
2022-11-27T08:25:54.412Z,24.83
2022-11-27T08:31:03.700Z,22.53
2022-11-27T08:36:16.277Z,15.93
2022-11-27T08:41:23.838Z,19.10
2022-11-27T08:46:35.012Z,17.93
2022-11-27T08:51:43.617Z,16.07
2022-11-27T08:56:53.273Z,19.40
2022-11-27T09:02:01.360Z,18.33
2022-11-27T09:07:10.752Z,22.03
2022-11-27T09:12:19.149Z,19.97
2022-11-27T09:17:28.268Z,21.07
2022-11-27T09:22:36.386Z,18.93
2022-11-27T09:27:44.242Z,21.03
2022-11-27T09:32:52.989Z,17.20
2022-11-27T09:38:00.823Z,17.03
2022-11-27T09:43:11.362Z,17.57
2022-11-27T09:48:36.852Z,18.33
2022-11-27T09:53:59.938Z,17.30
2022-11-27T09:59:10.910Z,18.07
2022-11-27T10:04:20.067Z,16.53
2022-11-27T10:09:58.653Z,16.60
2022-11-27T10:15:32.155Z,16.70
2022-11-27T10:20:48.006Z,17.57
2022-11-27T10:25:59.058Z,17.00
2022-11-27T10:31:23.245Z,20.23
2022-11-27T10:36:33.939Z,16.90
2022-11-27T10:42:03.915Z,16.50
2022-11-27T10:47:13.212Z,17.03
2022-11-27T10:52:21.243Z,16.67
2022-11-27T10:57:49.336Z,17.03
2022-11-27T11:03:03.923Z,16.93
2022-11-27T11:08:19.666Z,19.20
2022-11-27T11:13:32.430Z,17.53
2022-11-27T11:18:50.619Z,17.97
2022-11-27T11:24:09.023Z,14.67
2022-11-27T11:29:26.167Z,17.17
2022-11-27T11:34:33.958Z,16.80
2022-11-27T11:39:45.066Z,16.30
2022-11-27T11:44:55.574Z,15.30
2022-11-27T11:50:05.279Z,18.30
2022-11-27T11:55:35.104Z,16.37
2022-11-27T12:01:11.926Z,17.17
2022-11-27T12:06:04.612Z,16.60
2022-11-27T12:11:26.466Z,18.40
2022-11-27T12:16:37.589Z,18.20
2022-11-27T12:22:05.119Z,16.37
2022-11-27T12:27:40.511Z,14.83
2022-11-27T12:33:18.511Z,15.63
2022-11-27T12:38:50.684Z,14.83
2022-11-27T12:44:00.514Z,16.50
2022-11-27T12:49:14.852Z,17.83
2022-11-27T12:54:25.881Z,17.83
2022-11-27T12:59:43.797Z,17.43
2022-11-27T13:04:54.617Z,16.20
2022-11-27T13:10:13.964Z,15.90
2022-11-27T13:15:31.725Z,17.10
2022-11-27T13:20:40.186Z,16.73
2022-11-27T13:25:52.711Z,16.03
2022-11-27T13:31:01.759Z,14.37
2022-11-27T13:36:11.252Z,14.77
2022-11-27T13:41:23.169Z,14.37
2022-11-27T13:46:33.645Z,16.03
2022-11-27T13:51:41.359Z,14.57
2022-11-27T13:56:48.971Z,15.87
2022-11-27T14:01:58.821Z,16.90
2022-11-27T14:07:10.508Z,16.53
2022-11-27T14:12:28.527Z,17.93
2022-11-27T14:17:44.140Z,18.07
2022-11-27T14:23:11.711Z,16.80
2022-11-27T14:28:23.319Z,20.33
2022-11-27T14:33:59.566Z,18.47
2022-11-27T14:38:47.906Z,18.17
2022-11-27T14:44:08.415Z,19.67
2022-11-27T14:49:20.957Z,17.20
2022-11-27T14:54:33.704Z,18.30
2022-11-27T14:59:42.633Z,17.93
2022-11-27T15:04:53.170Z,18.73
2022-11-27T15:10:01.201Z,23.00
2022-11-27T15:15:20.987Z,19.50
2022-11-27T15:20:31.606Z,18.67
2022-11-27T15:25:41.967Z,20.20
2022-11-27T15:30:50.060Z,19.83
2022-11-27T15:36:19.623Z,22.23
2022-11-27T15:41:29.198Z,22.60
2022-11-27T15:46:39.575Z,23.33
2022-11-27T15:51:48.114Z,22.50
2022-11-27T15:56:57.874Z,23.47
2022-11-27T16:02:06.019Z,23.33
2022-11-27T16:07:14.466Z,20.70
2022-11-27T16:12:23.481Z,19.47
2022-11-27T16:17:39.948Z,18.60
2022-11-27T16:22:48.097Z,20.27
2022-11-27T16:28:02.256Z,19.80
2022-11-27T16:33:05.360Z,21.00
2022-11-27T16:38:14.645Z,25.10
2022-11-27T16:43:22.958Z,22.10
2022-11-27T16:48:31.091Z,23.93
2022-11-27T16:53:40.358Z,22.50
2022-11-27T16:58:48.532Z,21.00
2022-11-27T17:03:56.662Z,21.20
2022-11-27T17:09:07.141Z,21.53
2022-11-27T17:14:17.461Z,23.83
2022-11-27T17:19:27.153Z,24.90
2022-11-27T17:24:36.210Z,24.00
2022-11-27T17:29:44.498Z,24.43
2022-11-27T17:34:52.355Z,24.10
2022-11-27T17:40:01.496Z,23.93
2022-11-27T17:45:09.829Z,23.77
2022-11-27T17:50:17.675Z,27.20
2022-11-27T17:55:28.401Z,27.50
2022-11-27T18:00:38.149Z,28.07
2022-11-27T18:05:48.230Z,28.23
2022-11-27T18:10:56.183Z,28.97
2022-11-27T18:16:09.259Z,28.00
2022-11-27T18:21:18.953Z,29.73
2022-11-27T18:26:45.312Z,30.83
2022-11-27T18:31:41.296Z,30.80
2022-11-27T18:36:50.990Z,27.40
2022-11-27T18:42:01.539Z,29.60
2022-11-27T18:47:10.248Z,30.90
2022-11-27T18:52:18.681Z,28.73
2022-11-27T18:57:26.500Z,27.60
2022-11-27T19:02:35.979Z,29.07
2022-11-27T19:07:43.890Z,28.47
2022-11-27T19:12:52.035Z,27.83
2022-11-27T19:18:00.224Z,30.47
2022-11-27T19:23:08.120Z,34.47
2022-11-27T19:28:16.356Z,31.83
2022-11-27T19:33:25.475Z,31.37
2022-11-27T19:38:34.936Z,35.23
2022-11-27T19:43:47.978Z,34.57
2022-11-27T19:48:57.534Z,36.00
2022-11-27T19:54:10.517Z,33.03
2022-11-27T19:59:25.552Z,34.10
2022-11-27T20:04:32.413Z,36.50
2022-11-27T20:09:40.680Z,35.73
2022-11-27T20:14:48.471Z,34.30
2022-11-27T20:19:56.331Z,33.93
2022-11-27T20:25:19.101Z,37.40
2022-11-27T20:30:15.029Z,33.17
2022-11-27T20:35:22.893Z,35.07
2022-11-27T20:40:31.254Z,35.00
2022-11-27T20:45:42.056Z,37.47
2022-11-27T20:50:51.836Z,38.40
2022-11-27T20:56:05.040Z,39.80
2022-11-27T21:01:25.981Z,36.67
2022-11-27T21:06:40.516Z,38.87
2022-11-27T21:11:45.421Z,38.50
2022-11-27T21:16:54.850Z,37.03
2022-11-27T21:22:03.694Z,33.43
2022-11-27T21:27:12.479Z,36.73
2022-11-27T21:32:21.982Z,38.20
2022-11-27T21:37:30.547Z,36.93
2022-11-27T21:42:44.506Z,37.57
2022-11-27T21:47:56.070Z,37.60
2022-11-27T21:53:06.406Z,38.27
2022-11-27T21:58:14.910Z,40.43
2022-11-27T22:03:22.621Z,38.70
2022-11-27T22:08:30.999Z,37.63
2022-11-27T22:13:39.744Z,33.93
2022-11-27T22:18:49.395Z,35.20
2022-11-27T22:23:57.997Z,33.23
2022-11-27T22:29:06.568Z,31.47
2022-11-27T22:34:15.211Z,33.50
2022-11-27T22:39:23.189Z,31.77
2022-11-27T22:44:30.918Z,28.47
2022-11-27T22:49:41.467Z,27.97
2022-11-27T22:54:50.378Z,29.87
2022-11-27T22:59:58.101Z,31.03
2022-11-27T23:05:06.017Z,31.63
2022-11-27T23:10:13.991Z,32.83
2022-11-27T23:15:21.886Z,32.90
2022-11-27T23:20:29.954Z,32.77
2022-11-27T23:25:38.693Z,34.17
2022-11-27T23:30:48.510Z,34.83
2022-11-27T23:36:01.639Z,33.63
2022-11-27T23:41:11.674Z,35.43
2022-11-27T23:46:20.201Z,35.43
2022-11-27T23:51:31.023Z,40.03
2022-11-27T23:56:42.062Z,36.17
